createdAt,value
2022-08-08T00:00:55.476Z,93.80
2022-08-08T00:01:10.289Z,94.00
2022-08-08T00:02:31.420Z,93.90
2022-08-08T00:03:48.093Z,93.90
2022-08-08T00:05:11.739Z,94.00
2022-08-08T00:06:34.220Z,94.10
2022-08-08T00:07:56.944Z,94.20
2022-08-08T00:09:18.879Z,94.40
2022-08-08T00:10:30.463Z,94.30
2022-08-08T00:11:47.095Z,94.10
2022-08-08T00:13:20.842Z,94.40
2022-08-08T00:14:59.872Z,94.20
2022-08-08T00:16:10.173Z,94.40
2022-08-08T00:17:22.977Z,94.20
2022-08-08T00:18:36.883Z,94.30
2022-08-08T00:19:46.681Z,94.40
2022-08-08T00:21:00.688Z,94.60
2022-08-08T00:22:18.962Z,94.70
2022-08-08T00:23:42.406Z,95.00
2022-08-08T00:24:58.061Z,95.20
2022-08-08T00:26:04.755Z,95.10
2022-08-08T00:27:10.822Z,95.20
2022-08-08T00:28:34.252Z,95.30
2022-08-08T00:29:47.369Z,95.60
2022-08-08T00:31:00.798Z,95.90
2022-08-08T00:32:38.749Z,96.10
2022-08-08T00:34:17.827Z,96.20
2022-08-08T00:35:37.332Z,96.40
2022-08-08T00:36:51.577Z,96.50
2022-08-08T00:38:44.312Z,96.70
2022-08-08T00:41:12.078Z,97.50
2022-08-08T00:42:09.167Z,97.60
2022-08-08T00:43:56.024Z,97.70
2022-08-08T00:45:44.450Z,97.50
2022-08-08T00:47:23.505Z,97.40
2022-08-08T00:49:02.957Z,97.20
2022-08-08T00:50:48.249Z,97.40
2022-08-08T00:52:07.103Z,97.30
2022-08-08T00:53:19.726Z,97.40
2022-08-08T00:54:53.789Z,97.50
2022-08-08T00:56:50.939Z,97.60
2022-08-08T00:58:30.573Z,97.60
2022-08-08T01:00:05.066Z,97.60
2022-08-08T01:01:37.598Z,97.70
2022-08-08T01:04:02.216Z,97.80
2022-08-08T01:05:59.450Z,98.10
2022-08-08T01:07:55.440Z,98.20
2022-08-08T01:10:06.156Z,98.20
2022-08-08T01:11:53.929Z,98.30
2022-08-08T01:13:37.966Z,98.00
2022-08-08T01:15:26.341Z,98.10
2022-08-08T01:17:53.815Z,98.00
2022-08-08T01:19:51.951Z,97.90
2022-08-08T01:21:35.012Z,97.60
2022-08-08T01:24:06.348Z,97.50
2022-08-08T01:25:26.170Z,97.80
2022-08-08T01:27:32.644Z,97.80
2022-08-08T01:28:54.607Z,97.90
2022-08-08T01:30:44.209Z,97.70
2022-08-08T01:32:23.914Z,97.90
2022-08-08T01:34:01.258Z,98.00
2022-08-08T01:35:50.006Z,98.00
2022-08-08T01:37:58.318Z,99.20
2022-08-08T01:39:27.965Z,99.70
2022-08-08T01:40:43.969Z,99.00
2022-08-08T01:41:58.427Z,98.40
2022-08-08T01:43:08.813Z,97.60
2022-08-08T01:44:26.632Z,97.40
2022-08-08T01:45:56.472Z,97.50
2022-08-08T01:48:14.873Z,97.60
2022-08-08T01:48:49.508Z,97.40
2022-08-08T01:50:05.202Z,96.80
2022-08-08T01:52:13.063Z,96.60
2022-08-08T01:54:19.622Z,96.80
2022-08-08T01:55:26.173Z,96.70
2022-08-08T01:56:28.109Z,96.80
2022-08-08T01:58:12.184Z,97.10
2022-08-08T01:59:16.571Z,97.30
2022-08-08T02:00:22.237Z,97.20
2022-08-08T02:02:05.369Z,97.30
2022-08-08T02:03:54.546Z,96.80
2022-08-08T02:05:02.411Z,97.00
2022-08-08T02:06:32.870Z,97.70
2022-08-08T02:07:58.877Z,97.60
2022-08-08T02:09:15.964Z,97.80
2022-08-08T02:10:44.966Z,97.90
2022-08-08T02:12:00.091Z,97.80
2022-08-08T02:13:53.785Z,97.90
2022-08-08T02:14:55.999Z,98.10
2022-08-08T02:16:20.833Z,97.80
2022-08-08T02:17:42.634Z,97.70
2022-08-08T02:18:58.822Z,97.90
2022-08-08T02:20:16.077Z,97.90
2022-08-08T02:22:05.187Z,97.60
2022-08-08T02:23:20.443Z,97.80
2022-08-08T02:24:29.406Z,97.50
2022-08-08T02:25:48.595Z,97.70
2022-08-08T02:27:01.667Z,97.90
2022-08-08T02:28:16.658Z,97.90
2022-08-08T02:29:47.084Z,98.10
2022-08-08T02:31:05.023Z,98.30
2022-08-08T02:33:00.651Z,98.40
2022-08-08T02:34:14.959Z,98.40
2022-08-08T02:36:04.598Z,98.60
2022-08-08T02:37:52.691Z,98.90
2022-08-08T02:39:01.276Z,99.40
2022-08-08T02:40:09.699Z,99.30
2022-08-08T02:42:04.487Z,99.30
2022-08-08T02:44:42.553Z,99.40
2022-08-08T02:45:21.380Z,99.90
2022-08-08T02:46:45.517Z,99.90
2022-08-08T02:48:26.244Z,99.90
2022-08-08T02:50:04.166Z,99.90
2022-08-08T02:51:56.461Z,99.90
2022-08-08T02:53:30.514Z,99.90
2022-08-08T02:54:59.078Z,99.90
2022-08-08T02:56:43.440Z,99.90
2022-08-08T02:58:35.471Z,99.90
2022-08-08T03:00:30.972Z,99.90
2022-08-08T03:02:05.131Z,99.90
2022-08-08T03:05:04.943Z,99.90
2022-08-08T03:05:55.621Z,99.90
2022-08-08T03:07:41.134Z,99.90
2022-08-08T03:09:36.624Z,99.90
2022-08-08T03:11:47.667Z,99.90
2022-08-08T03:15:58.107Z,99.90
2022-08-08T03:15:59.453Z,99.90
2022-08-08T03:17:09.086Z,99.90
2022-08-08T03:18:31.051Z,99.90
2022-08-08T03:19:51.946Z,99.90
2022-08-08T03:20:56.452Z,99.90
2022-08-08T03:22:02.701Z,99.90
2022-08-08T03:23:07.186Z,99.90
2022-08-08T03:24:10.433Z,99.90
2022-08-08T03:25:18.841Z,99.90
2022-08-08T03:26:35.567Z,99.90
2022-08-08T03:27:56.727Z,99.90
2022-08-08T03:29:04.488Z,99.90
2022-08-08T03:30:21.948Z,99.90
2022-08-08T03:32:06.741Z,99.90
2022-08-08T03:33:55.039Z,99.90
2022-08-08T03:34:44.838Z,99.90
2022-08-08T03:35:50.522Z,99.90
2022-08-08T03:36:56.088Z,99.90
2022-08-08T03:38:57.988Z,99.90
2022-08-08T03:39:26.091Z,99.90
2022-08-08T03:40:30.316Z,99.90
2022-08-08T03:42:27.824Z,99.90
2022-08-08T03:43:15.795Z,99.90
2022-08-08T03:44:25.498Z,99.90
2022-08-08T03:46:05.037Z,99.90
2022-08-08T03:46:54.014Z,99.90
2022-08-08T03:48:02.497Z,99.90
2022-08-08T03:49:58.928Z,99.90
2022-08-08T03:50:46.711Z,99.90
2022-08-08T03:51:53.788Z,99.90
2022-08-08T03:53:06.594Z,99.90
2022-08-08T03:54:15.542Z,99.90
2022-08-08T03:55:57.381Z,99.90
2022-08-08T03:57:00.357Z,99.90
2022-08-08T03:58:36.418Z,99.90
2022-08-08T04:00:01.377Z,99.90
2022-08-08T04:01:24.653Z,99.90
2022-08-08T04:02:32.993Z,99.90
2022-08-08T04:03:57.539Z,99.90
2022-08-08T04:05:04.619Z,99.90
2022-08-08T04:06:14.333Z,99.90
2022-08-08T04:07:16.966Z,99.90
2022-08-08T04:08:33.483Z,99.90
2022-08-08T04:09:59.298Z,99.90
2022-08-08T04:11:10.861Z,99.90
2022-08-08T04:12:16.196Z,99.90
2022-08-08T04:13:22.323Z,99.90
2022-08-08T04:14:35.792Z,99.90
2022-08-08T04:15:40.059Z,99.90
2022-08-08T04:17:04.322Z,99.90
2022-08-08T04:18:06.757Z,99.90
2022-08-08T04:19:23.301Z,99.90
2022-08-08T04:20:31.531Z,99.90
2022-08-08T04:21:38.126Z,99.90
2022-08-08T04:22:43.915Z,99.90
2022-08-08T04:24:12.096Z,99.90
2022-08-08T04:25:15.401Z,99.90
2022-08-08T04:26:21.337Z,99.90
2022-08-08T04:28:03.137Z,99.90
2022-08-08T04:28:54.531Z,99.90
2022-08-08T04:30:00.997Z,99.90
2022-08-08T04:31:57.201Z,99.90
2022-08-08T04:32:47.893Z,99.90
2022-08-08T04:33:50.355Z,99.90
2022-08-08T04:34:58.496Z,99.90
2022-08-08T04:36:07.369Z,99.90
2022-08-08T04:37:10.874Z,99.90
2022-08-08T04:38:21.725Z,99.90
2022-08-08T04:39:48.114Z,99.90
2022-08-08T04:40:53.644Z,99.90
2022-08-08T04:41:58.517Z,99.90
2022-08-08T04:43:01.824Z,99.90
2022-08-08T04:44:09.383Z,99.90
2022-08-08T04:45:12.726Z,99.90
2022-08-08T04:46:16.438Z,99.90
2022-08-08T04:47:24.457Z,99.90
2022-08-08T04:48:27.764Z,99.90
2022-08-08T04:49:59.024Z,99.90
2022-08-08T04:50:57.318Z,99.90
2022-08-08T04:52:09.548Z,99.90
2022-08-08T04:54:37.202Z,99.90
2022-08-08T04:54:42.394Z,99.90
2022-08-08T04:55:55.318Z,99.90
2022-08-08T04:56:59.964Z,99.90
2022-08-08T04:58:02.985Z,99.90
2022-08-08T04:59:05.177Z,99.90
2022-08-08T05:00:13.091Z,99.90
2022-08-08T05:01:22.943Z,99.90
2022-08-08T05:02:30.488Z,99.90
2022-08-08T05:04:09.780Z,99.90
2022-08-08T05:04:56.178Z,99.90
2022-08-08T05:06:12.919Z,99.90
2022-08-08T05:07:17.601Z,99.90
2022-08-08T05:08:19.902Z,99.90
2022-08-08T05:09:30.243Z,99.90
2022-08-08T05:10:38.665Z,99.90
2022-08-08T05:11:42.755Z,99.90
2022-08-08T05:13:00.211Z,99.90
2022-08-08T05:14:06.981Z,99.90
2022-08-08T05:15:13.684Z,99.90
2022-08-08T05:16:52.343Z,99.90
2022-08-08T05:17:54.373Z,99.90
2022-08-08T05:18:58.441Z,99.90
2022-08-08T05:20:09.608Z,99.90
2022-08-08T05:21:19.410Z,99.90
2022-08-08T05:22:23.992Z,99.90
2022-08-08T05:23:26.974Z,99.90
2022-08-08T05:24:33.331Z,99.90
2022-08-08T05:25:41.537Z,99.90
2022-08-08T05:26:48.728Z,99.90
2022-08-08T05:27:55.025Z,99.90
2022-08-08T05:29:06.236Z,99.90
2022-08-08T05:30:10.913Z,99.90
2022-08-08T05:32:03.553Z,99.90
2022-08-08T05:32:44.805Z,99.90
2022-08-08T05:33:50.921Z,99.90
2022-08-08T05:35:01.582Z,99.90
2022-08-08T05:36:09.992Z,99.90
2022-08-08T05:37:52.095Z,99.90
2022-08-08T05:38:55.955Z,99.90
2022-08-08T05:40:05.458Z,99.90
2022-08-08T05:41:11.683Z,99.90
2022-08-08T05:42:19.197Z,99.90
2022-08-08T05:43:39.545Z,99.90
2022-08-08T05:45:00.400Z,99.90
2022-08-08T05:46:07.708Z,99.90
2022-08-08T05:47:14.862Z,99.90
2022-08-08T05:48:28.386Z,99.90
2022-08-08T05:49:38.097Z,99.90
2022-08-08T05:50:42.173Z,99.90
2022-08-08T05:51:49.687Z,99.90
2022-08-08T05:53:54.344Z,99.90
2022-08-08T05:54:27.179Z,99.90
2022-08-08T05:56:09.783Z,99.90
2022-08-08T05:57:16.043Z,99.90
2022-08-08T05:58:32.575Z,99.90
2022-08-08T06:00:01.113Z,99.90
2022-08-08T06:01:52.586Z,99.40
2022-08-08T06:03:03.415Z,99.90
2022-08-08T06:04:13.879Z,99.90
2022-08-08T06:05:35.199Z,99.90
2022-08-08T06:06:48.076Z,98.30
2022-08-08T06:08:02.512Z,98.30
2022-08-08T06:10:00.043Z,98.40
2022-08-08T06:10:38.480Z,98.10
2022-08-08T06:11:46.098Z,97.70
2022-08-08T06:12:51.679Z,97.80
2022-08-08T06:13:54.493Z,97.60
2022-08-08T06:15:03.034Z,97.40
2022-08-08T06:16:12.197Z,97.10
2022-08-08T06:17:50.737Z,96.40
2022-08-08T06:18:56.822Z,96.20
2022-08-08T06:20:03.135Z,95.60
2022-08-08T06:21:11.548Z,95.10
2022-08-08T06:22:35.221Z,94.20
2022-08-08T06:23:52.937Z,93.80
2022-08-08T06:25:06.534Z,92.90
2022-08-08T06:26:38.927Z,92.20
2022-08-08T06:27:48.073Z,91.70
2022-08-08T06:28:54.848Z,90.60
2022-08-08T06:30:19.730Z,90.20
2022-08-08T06:31:32.239Z,89.60
2022-08-08T06:32:52.870Z,89.40
2022-08-08T06:34:26.548Z,87.70
2022-08-08T06:36:08.002Z,87.40
2022-08-08T06:37:02.675Z,86.70
2022-08-08T06:38:34.787Z,85.90
2022-08-08T06:39:38.475Z,85.20
2022-08-08T06:41:07.557Z,84.70
2022-08-08T06:42:13.238Z,83.60
2022-08-08T06:43:28.504Z,82.90
2022-08-08T06:44:42.597Z,83.60
2022-08-08T06:45:48.240Z,83.30
2022-08-08T06:46:53.284Z,83.40
2022-08-08T06:48:01.085Z,81.90
2022-08-08T06:49:10.980Z,81.00
2022-08-08T06:50:17.572Z,80.90
2022-08-08T06:51:48.939Z,79.70
2022-08-08T06:52:59.356Z,78.90
2022-08-08T06:54:03.069Z,78.50
2022-08-08T06:55:11.273Z,78.50
2022-08-08T06:56:17.134Z,76.90
2022-08-08T06:57:19.878Z,76.90
2022-08-08T06:58:23.192Z,76.30
2022-08-08T07:00:11.324Z,76.10
2022-08-08T07:01:52.422Z,75.70
2022-08-08T07:02:32.208Z,74.70
2022-08-08T07:03:52.728Z,75.50
2022-08-08T07:05:11.863Z,75.40
2022-08-08T07:06:27.023Z,74.60
2022-08-08T07:07:38.719Z,74.00
2022-08-08T07:08:48.059Z,73.90
2022-08-08T07:10:03.608Z,74.40
2022-08-08T07:11:22.443Z,72.60
2022-08-08T07:12:35.876Z,70.80
2022-08-08T07:14:00.073Z,73.00
2022-08-08T07:15:05.993Z,72.90
2022-08-08T07:16:19.567Z,71.20
2022-08-08T07:18:00.653Z,69.00
2022-08-08T07:19:08.550Z,68.40
2022-08-08T07:20:18.756Z,68.30
2022-08-08T07:21:28.117Z,66.90
2022-08-08T07:22:41.977Z,66.60
2022-08-08T07:23:57.650Z,67.50
2022-08-08T07:25:14.578Z,67.90
2022-08-08T07:26:29.007Z,65.50
2022-08-08T07:27:47.181Z,63.70
2022-08-08T07:29:08.116Z,65.40
2022-08-08T07:30:19.727Z,61.80
2022-08-08T07:31:30.375Z,63.30
2022-08-08T07:32:40.107Z,63.90
2022-08-08T07:33:58.857Z,64.20
2022-08-08T07:35:08.627Z,63.30
2022-08-08T07:36:15.199Z,61.80
2022-08-08T07:37:23.430Z,60.70
2022-08-08T07:38:28.239Z,61.50
2022-08-08T07:39:45.582Z,61.50
2022-08-08T07:40:50.445Z,61.70
2022-08-08T07:42:05.074Z,62.40
2022-08-08T07:43:12.256Z,62.50
2022-08-08T07:44:40.654Z,62.50
2022-08-08T07:46:05.737Z,61.30
2022-08-08T07:47:11.897Z,61.30
2022-08-08T07:48:18.353Z,61.60
2022-08-08T07:49:22.756Z,63.50
2022-08-08T07:50:26.142Z,62.60
2022-08-08T07:51:45.265Z,60.60
2022-08-08T07:53:02.983Z,62.50
2022-08-08T07:54:15.878Z,59.80
2022-08-08T07:55:36.455Z,59.80
2022-08-08T07:56:50.077Z,61.30
2022-08-08T07:58:14.368Z,59.80
2022-08-08T07:59:19.462Z,61.50
2022-08-08T08:00:31.120Z,60.20
2022-08-08T08:02:37.148Z,58.90
2022-08-08T08:03:20.379Z,58.70
2022-08-08T08:04:40.059Z,61.80
2022-08-08T08:05:50.877Z,59.50
2022-08-08T08:06:59.743Z,59.90
2022-08-08T08:08:05.759Z,58.30
2022-08-08T08:09:20.298Z,58.90
2022-08-08T08:10:30.708Z,57.80
2022-08-08T08:11:51.574Z,58.10
2022-08-08T08:13:25.150Z,57.90
2022-08-08T08:14:34.777Z,60.60
2022-08-08T08:15:37.578Z,60.50
2022-08-08T08:16:48.706Z,59.60
2022-08-08T08:17:59.850Z,60.00
2022-08-08T08:19:06.405Z,60.60
2022-08-08T08:20:16.274Z,61.10
2022-08-08T08:21:21.157Z,59.30
2022-08-08T08:22:47.482Z,58.80
2022-08-08T08:23:52.177Z,58.00
2022-08-08T08:25:08.346Z,58.00
2022-08-08T08:26:14.052Z,57.40
2022-08-08T08:27:30.505Z,56.30
2022-08-08T08:28:34.877Z,58.30
2022-08-08T08:29:39.772Z,57.20
2022-08-08T08:30:45.733Z,56.50
2022-08-08T08:31:53.987Z,58.20
2022-08-08T08:33:00.656Z,57.10
2022-08-08T08:34:06.582Z,56.50
2022-08-08T08:35:11.228Z,57.20
2022-08-08T08:36:26.433Z,56.90
2022-08-08T08:37:30.274Z,56.10
2022-08-08T08:38:34.739Z,56.70
2022-08-08T08:40:01.572Z,56.50
2022-08-08T08:41:17.069Z,56.90
2022-08-08T08:42:35.375Z,56.10
2022-08-08T08:43:45.154Z,56.60
2022-08-08T08:44:51.050Z,56.80
2022-08-08T08:45:57.299Z,58.20
2022-08-08T08:47:03.113Z,58.40
2022-08-08T08:48:10.121Z,60.20
2022-08-08T08:49:22.167Z,58.40
2022-08-08T08:50:32.471Z,57.00
2022-08-08T08:51:51.495Z,57.20
2022-08-08T08:52:59.850Z,58.30
2022-08-08T08:54:09.574Z,55.70
2022-08-08T08:55:15.376Z,56.20
2022-08-08T08:56:26.163Z,54.50
2022-08-08T08:57:59.295Z,56.60
2022-08-08T08:59:04.123Z,56.30
2022-08-08T09:00:19.051Z,58.00
2022-08-08T09:01:32.020Z,57.70
2022-08-08T09:02:35.654Z,58.40
2022-08-08T09:03:46.110Z,56.00
2022-08-08T09:05:03.261Z,56.80
2022-08-08T09:06:26.443Z,55.80
2022-08-08T09:07:39.635Z,56.50
2022-08-08T09:09:02.617Z,57.20
2022-08-08T09:10:05.913Z,59.60
2022-08-08T09:11:17.211Z,56.80
2022-08-08T09:12:23.476Z,57.30
2022-08-08T09:13:28.141Z,58.50
2022-08-08T09:14:32.948Z,58.40
2022-08-08T09:15:41.483Z,57.90
2022-08-08T09:16:49.647Z,58.10
2022-08-08T09:17:55.757Z,56.40
2022-08-08T09:19:01.795Z,56.60
2022-08-08T09:21:57.056Z,56.30
2022-08-08T09:21:58.544Z,57.50
2022-08-08T09:23:01.004Z,57.90
2022-08-08T09:24:05.950Z,57.90
2022-08-08T09:25:10.380Z,57.10
2022-08-08T09:26:22.537Z,56.50
2022-08-08T09:27:56.081Z,57.10
2022-08-08T09:28:51.687Z,57.30
2022-08-08T09:30:04.066Z,56.90
2022-08-08T09:31:17.044Z,59.00
2022-08-08T09:32:35.973Z,58.70
2022-08-08T09:34:15.116Z,60.00
2022-08-08T09:35:10.232Z,58.60
2022-08-08T09:36:23.287Z,57.80
2022-08-08T09:37:58.673Z,58.20
2022-08-08T09:39:15.550Z,58.30
2022-08-08T09:40:40.564Z,60.20
2022-08-08T09:42:20.287Z,59.00
2022-08-08T09:44:05.362Z,59.20
2022-08-08T09:45:08.056Z,58.90
2022-08-08T09:46:25.544Z,58.80
2022-08-08T09:48:04.400Z,56.30
2022-08-08T09:49:04.573Z,58.10
2022-08-08T09:50:28.283Z,57.00
2022-08-08T09:52:01.947Z,57.90
2022-08-08T09:53:01.341Z,57.60
2022-08-08T09:54:15.298Z,57.80
2022-08-08T09:55:31.680Z,57.00
2022-08-08T09:56:52.490Z,57.60
2022-08-08T09:58:02.585Z,57.20
2022-08-08T09:59:39.555Z,57.10
2022-08-08T10:00:49.650Z,57.30
2022-08-08T10:02:02.854Z,57.80
2022-08-08T10:03:14.448Z,59.10
2022-08-08T10:04:38.499Z,58.10
2022-08-08T10:05:47.296Z,56.30
2022-08-08T10:06:54.891Z,56.40
2022-08-08T10:08:01.109Z,58.60
2022-08-08T10:09:04.153Z,57.10
2022-08-08T10:10:08.978Z,59.00
2022-08-08T10:12:27.310Z,58.60
2022-08-08T10:12:53.004Z,58.80
2022-08-08T10:13:59.563Z,56.10
2022-08-08T10:15:02.931Z,57.00
2022-08-08T10:16:21.306Z,56.80
2022-08-08T10:18:07.503Z,56.90
2022-08-08T10:18:49.207Z,57.70
2022-08-08T10:20:00.047Z,58.50
2022-08-08T10:21:22.809Z,58.90
2022-08-08T10:22:30.495Z,58.70
2022-08-08T10:23:44.039Z,58.20
2022-08-08T10:24:52.842Z,57.70
2022-08-08T10:25:57.674Z,56.30
2022-08-08T10:27:02.516Z,56.30
2022-08-08T10:28:07.793Z,55.50
2022-08-08T10:29:30.236Z,56.50
2022-08-08T10:30:59.904Z,58.20
2022-08-08T10:32:24.124Z,56.60
2022-08-08T10:33:38.280Z,59.20
2022-08-08T10:35:01.397Z,57.20
2022-08-08T10:36:22.489Z,57.00
2022-08-08T10:37:30.235Z,56.70
2022-08-08T10:38:35.677Z,58.80
2022-08-08T10:39:54.673Z,57.90
2022-08-08T10:41:02.944Z,56.70
2022-08-08T10:42:15.334Z,57.70
2022-08-08T10:43:20.285Z,56.60
2022-08-08T10:44:34.474Z,56.50
2022-08-08T10:45:56.054Z,55.20
2022-08-08T10:47:09.563Z,56.10
2022-08-08T10:48:14.087Z,57.60
2022-08-08T10:49:26.899Z,57.10
2022-08-08T10:50:42.904Z,57.70
2022-08-08T10:51:51.313Z,57.10
2022-08-08T10:53:04.741Z,57.70
2022-08-08T10:54:10.463Z,57.80
2022-08-08T10:55:39.547Z,56.30
2022-08-08T10:56:43.181Z,56.70
2022-08-08T10:57:50.534Z,56.50
2022-08-08T10:58:57.928Z,56.50
2022-08-08T11:00:01.272Z,57.80
2022-08-08T11:01:10.760Z,57.00
2022-08-08T11:02:14.902Z,55.60
2022-08-08T11:03:36.550Z,56.00
2022-08-08T11:04:53.526Z,55.20
2022-08-08T11:06:00.466Z,55.50
2022-08-08T11:07:04.814Z,55.60
2022-08-08T11:08:38.036Z,55.30
2022-08-08T11:09:47.906Z,55.40
2022-08-08T11:11:02.446Z,57.00
2022-08-08T11:12:13.394Z,58.60
2022-08-08T11:13:30.122Z,56.60
2022-08-08T11:14:35.726Z,57.90
2022-08-08T11:15:58.910Z,56.10
2022-08-08T11:17:06.109Z,55.60
2022-08-08T11:18:20.244Z,55.10
2022-08-08T11:19:25.780Z,56.10
2022-08-08T11:20:30.252Z,56.90
2022-08-08T11:21:37.911Z,57.10
2022-08-08T11:22:43.173Z,57.20
2022-08-08T11:24:02.312Z,57.90
2022-08-08T11:25:14.473Z,57.90
2022-08-08T11:26:20.966Z,56.40
2022-08-08T11:27:37.262Z,55.30
2022-08-08T11:28:41.563Z,55.80
2022-08-08T11:29:58.345Z,56.70
2022-08-08T11:31:11.582Z,56.30
2022-08-08T11:32:14.358Z,56.80
2022-08-08T11:33:19.163Z,57.90
2022-08-08T11:34:34.478Z,57.80
2022-08-08T11:35:48.968Z,58.60
2022-08-08T11:36:58.820Z,57.40
2022-08-08T11:38:37.074Z,56.80
2022-08-08T11:39:36.953Z,56.50
2022-08-08T11:40:41.133Z,58.10
2022-08-08T11:41:46.334Z,56.50
2022-08-08T11:42:52.044Z,57.10
2022-08-08T11:43:58.158Z,57.80
2022-08-08T11:45:02.738Z,55.90
2022-08-08T11:46:14.366Z,56.10
2022-08-08T11:47:22.677Z,55.90
2022-08-08T11:48:46.949Z,56.10
2022-08-08T11:49:52.575Z,57.00
2022-08-08T11:50:57.279Z,56.60
2022-08-08T11:52:00.912Z,56.20
2022-08-08T11:53:08.516Z,57.20
2022-08-08T11:54:32.087Z,57.00
2022-08-08T11:55:36.336Z,57.40
2022-08-08T11:56:42.154Z,56.80
2022-08-08T11:57:46.920Z,56.30
2022-08-08T11:58:55.751Z,56.60
2022-08-08T12:00:05.843Z,57.00
2022-08-08T12:01:18.396Z,56.80
2022-08-08T12:02:41.637Z,56.40
2022-08-08T12:03:50.172Z,57.10
2022-08-08T12:05:03.419Z,56.50
2022-08-08T12:06:13.965Z,54.60
2022-08-08T12:07:18.242Z,55.90
2022-08-08T12:08:33.944Z,58.20
2022-08-08T12:09:56.813Z,55.40
2022-08-08T12:11:11.171Z,56.80
2022-08-08T12:12:28.981Z,56.40
2022-08-08T12:14:02.535Z,54.60
2022-08-08T12:15:05.066Z,55.70
2022-08-08T12:16:09.993Z,55.20
2022-08-08T12:17:14.338Z,54.50
2022-08-08T12:18:21.341Z,54.90
2022-08-08T12:19:37.899Z,55.30
2022-08-08T12:20:53.382Z,54.70
2022-08-08T12:22:08.821Z,55.30
2022-08-08T12:23:25.078Z,56.60
2022-08-08T12:24:46.162Z,55.20
2022-08-08T12:25:57.383Z,56.10
2022-08-08T12:26:59.989Z,55.70
2022-08-08T12:28:15.609Z,54.70
2022-08-08T12:29:40.864Z,55.50
2022-08-08T12:30:47.936Z,55.30
2022-08-08T12:32:03.386Z,54.70
2022-08-08T12:33:37.702Z,54.30
2022-08-08T12:34:57.540Z,54.30
2022-08-08T12:36:12.182Z,56.30
2022-08-08T12:37:22.328Z,57.50
2022-08-08T12:38:31.222Z,57.20
2022-08-08T12:40:00.976Z,54.60
2022-08-08T12:41:07.011Z,57.10
2022-08-08T12:42:27.406Z,56.80
2022-08-08T12:43:47.897Z,56.20
2022-08-08T12:45:58.994Z,57.40
2022-08-08T12:46:34.467Z,54.80
2022-08-08T12:47:58.540Z,55.20
2022-08-08T12:50:26.786Z,55.30
2022-08-08T12:51:41.262Z,56.80
2022-08-08T12:52:54.795Z,55.10
2022-08-08T12:53:59.870Z,55.30
2022-08-08T12:55:09.354Z,55.10
2022-08-08T12:56:23.802Z,56.70
2022-08-08T12:57:31.218Z,57.30
2022-08-08T12:58:44.468Z,57.80
2022-08-08T13:00:04.535Z,58.50
2022-08-08T13:01:11.032Z,58.70
2022-08-08T13:02:28.721Z,58.40
2022-08-08T13:03:35.183Z,56.80
2022-08-08T13:04:51.159Z,55.50
2022-08-08T13:06:13.883Z,56.30
2022-08-08T13:07:17.589Z,56.80
2022-08-08T13:08:53.089Z,58.40
2022-08-08T13:10:04.954Z,56.90
2022-08-08T13:11:20.830Z,58.00
2022-08-08T13:12:29.222Z,55.80
2022-08-08T13:13:37.627Z,56.10
2022-08-08T13:14:52.859Z,57.40
2022-08-08T13:16:16.834Z,55.30
2022-08-08T13:18:10.058Z,55.70
2022-08-08T13:18:57.024Z,55.70
2022-08-08T13:20:08.351Z,55.80
2022-08-08T13:21:13.664Z,55.40
2022-08-08T13:22:19.817Z,55.40
2022-08-08T13:23:41.278Z,56.00
2022-08-08T13:24:50.077Z,58.00
2022-08-08T13:26:01.578Z,58.40
2022-08-08T13:27:18.190Z,56.80
2022-08-08T13:28:28.887Z,56.50
2022-08-08T13:29:40.622Z,56.30
2022-08-08T13:30:43.952Z,55.40
2022-08-08T13:31:49.010Z,55.50
2022-08-08T13:32:57.044Z,55.20
2022-08-08T13:33:59.257Z,56.10
2022-08-08T13:35:24.766Z,58.10
2022-08-08T13:36:33.419Z,55.60
2022-08-08T13:38:05.527Z,55.50
2022-08-08T13:39:00.207Z,55.60
2022-08-08T13:40:06.526Z,55.20
2022-08-08T13:41:16.732Z,55.30
2022-08-08T13:42:23.265Z,56.20
2022-08-08T13:43:27.572Z,55.90
2022-08-08T13:44:31.844Z,56.40
2022-08-08T13:45:33.890Z,55.30
2022-08-08T13:46:38.450Z,56.10
2022-08-08T13:47:40.554Z,57.50
2022-08-08T13:49:12.283Z,57.50
2022-08-08T13:50:38.536Z,56.80
2022-08-08T13:51:59.410Z,55.90
2022-08-08T13:53:23.079Z,55.90
2022-08-08T13:54:29.292Z,56.40
2022-08-08T13:55:36.272Z,57.50
2022-08-08T13:56:59.584Z,55.90
2022-08-08T13:58:07.743Z,55.60
2022-08-08T13:59:14.207Z,56.50
2022-08-08T14:00:21.492Z,54.70
2022-08-08T14:01:41.730Z,56.20
2022-08-08T14:02:59.577Z,56.10
2022-08-08T14:04:03.153Z,55.30
2022-08-08T14:05:22.279Z,55.60
2022-08-08T14:06:33.958Z,55.10
2022-08-08T14:07:44.365Z,56.00
2022-08-08T14:08:52.453Z,56.20
2022-08-08T14:10:05.126Z,55.80
2022-08-08T14:11:14.153Z,57.40
2022-08-08T14:12:20.334Z,58.50
2022-08-08T14:13:33.407Z,58.20
2022-08-08T14:14:39.545Z,56.10
2022-08-08T14:15:46.290Z,55.10
2022-08-08T14:16:52.551Z,55.70
2022-08-08T14:17:59.091Z,56.50
2022-08-08T14:19:28.070Z,56.20
2022-08-08T14:20:56.691Z,54.80
2022-08-08T14:22:01.091Z,54.40
2022-08-08T14:23:10.453Z,54.50
2022-08-08T14:24:30.799Z,55.20
2022-08-08T14:25:45.320Z,55.40
2022-08-08T14:26:56.713Z,55.20
2022-08-08T14:28:10.299Z,55.30
2022-08-08T14:29:30.076Z,54.40
2022-08-08T14:30:36.354Z,56.40
2022-08-08T14:32:12.799Z,54.40
2022-08-08T14:33:15.159Z,55.70
2022-08-08T14:34:19.528Z,55.80
2022-08-08T14:35:35.960Z,55.40
2022-08-08T14:36:40.925Z,54.20
2022-08-08T14:38:06.021Z,53.70
2022-08-08T14:39:18.767Z,54.20
2022-08-08T14:40:24.286Z,53.30
2022-08-08T14:41:53.535Z,53.50
2022-08-08T14:42:56.512Z,53.90
2022-08-08T14:44:10.725Z,54.40
2022-08-08T14:45:18.369Z,53.60
2022-08-08T14:46:34.093Z,53.90
2022-08-08T14:47:47.691Z,53.50
2022-08-08T14:48:59.133Z,53.10
2022-08-08T14:50:15.122Z,53.80
2022-08-08T14:51:23.544Z,55.00
2022-08-08T14:52:25.738Z,56.50
2022-08-08T14:53:37.355Z,55.20
2022-08-08T14:54:56.996Z,55.60
2022-08-08T14:56:02.266Z,56.70
2022-08-08T14:57:06.595Z,57.80
2022-08-08T14:58:19.653Z,59.10
2022-08-08T14:59:43.839Z,57.00
2022-08-08T15:00:47.953Z,56.70
2022-08-08T15:01:52.507Z,58.20
2022-08-08T15:02:58.961Z,56.40
2022-08-08T15:04:17.897Z,56.60
2022-08-08T15:05:42.823Z,57.70
2022-08-08T15:06:46.962Z,57.90
2022-08-08T15:08:00.013Z,59.20
2022-08-08T15:09:04.470Z,56.90
2022-08-08T15:10:09.520Z,57.80
2022-08-08T15:11:19.222Z,58.10
2022-08-08T15:12:27.729Z,56.90
2022-08-08T15:13:40.094Z,58.00
2022-08-08T15:14:43.395Z,57.60
2022-08-08T15:16:01.781Z,57.50
2022-08-08T15:17:04.565Z,57.90
2022-08-08T15:18:11.426Z,58.30
2022-08-08T15:19:14.927Z,58.70
2022-08-08T15:20:18.573Z,58.60
2022-08-08T15:21:21.225Z,56.50
2022-08-08T15:22:24.556Z,55.40
2022-08-08T15:23:33.299Z,56.00
2022-08-08T15:24:37.708Z,55.50
2022-08-08T15:25:40.921Z,56.00
2022-08-08T15:26:52.952Z,55.20
2022-08-08T15:28:04.515Z,55.00
2022-08-08T15:29:18.714Z,54.90
2022-08-08T15:30:26.583Z,55.10
2022-08-08T15:32:02.680Z,55.40
2022-08-08T15:32:53.558Z,59.50
2022-08-08T15:33:59.144Z,57.40
2022-08-08T15:35:04.863Z,56.10
2022-08-08T15:36:09.386Z,55.20
2022-08-08T15:37:13.323Z,55.20
2022-08-08T15:38:17.313Z,54.80
2022-08-08T15:39:22.387Z,55.40
2022-08-08T15:40:28.292Z,55.20
2022-08-08T15:41:43.436Z,54.60
2022-08-08T15:42:49.489Z,54.90
2022-08-08T15:44:01.273Z,55.50
2022-08-08T15:45:05.430Z,55.50
2022-08-08T15:46:07.557Z,54.90
2022-08-08T15:47:19.088Z,55.40
2022-08-08T15:48:21.395Z,54.50
2022-08-08T15:49:27.664Z,54.70
2022-08-08T15:50:47.377Z,55.10
2022-08-08T15:51:54.575Z,55.10
2022-08-08T15:52:58.680Z,55.30
2022-08-08T15:54:02.214Z,55.40
2022-08-08T15:55:05.894Z,54.90
2022-08-08T15:56:13.021Z,55.70
2022-08-08T15:57:16.995Z,55.80
2022-08-08T15:58:20.643Z,55.70
2022-08-08T16:00:05.624Z,55.90
2022-08-08T16:00:55.083Z,55.30
2022-08-08T16:01:59.934Z,56.30
2022-08-08T16:03:08.054Z,56.00
2022-08-08T16:04:13.965Z,55.30
2022-08-08T16:05:17.288Z,55.10
2022-08-08T16:06:27.757Z,54.90
2022-08-08T16:07:39.130Z,55.30
2022-08-08T16:13:00.359Z,55.90
2022-08-08T16:13:03.639Z,57.90
2022-08-08T16:13:10.009Z,57.00
2022-08-08T16:13:34.165Z,56.70
2022-08-08T16:14:32.566Z,56.30
2022-08-08T16:15:35.760Z,56.30
2022-08-08T16:17:08.171Z,56.40
2022-08-08T16:18:12.422Z,56.50
2022-08-08T16:19:23.329Z,56.40